createdAt,value
2019-01-28T00:00:43.174Z,18.87
2019-01-28T00:03:10.815Z,19.67
2019-01-28T00:05:38.723Z,22.80
2019-01-28T00:08:06.337Z,19.47
2019-01-28T00:10:33.804Z,18.70
2019-01-28T00:13:01.408Z,22.50
2019-01-28T00:15:28.537Z,18.27
2019-01-28T00:17:55.774Z,23.77
2019-01-28T00:20:23.090Z,21.73
2019-01-28T00:22:50.062Z,19.10
2019-01-28T00:25:17.599Z,20.63
2019-01-28T00:27:45.301Z,23.73
2019-01-28T00:30:12.436Z,20.23
2019-01-28T00:32:39.787Z,23.00
2019-01-28T00:35:08.688Z,21.20
2019-01-28T00:37:36.155Z,22.33
2019-01-28T00:40:06.491Z,22.00
2019-01-28T00:42:33.887Z,22.63
2019-01-28T00:45:00.953Z,21.40
2019-01-28T00:47:28.292Z,22.23
2019-01-28T00:49:55.377Z,21.40
2019-01-28T00:52:22.792Z,23.43
2019-01-28T00:54:50.215Z,22.53
2019-01-28T00:57:17.814Z,27.00
2019-01-28T00:59:45.153Z,20.60
2019-01-28T01:02:13.386Z,23.43
2019-01-28T01:04:41.242Z,21.93
2019-01-28T01:07:08.914Z,24.10
2019-01-28T01:09:36.320Z,23.23
2019-01-28T01:12:04.702Z,21.33
2019-01-28T01:14:32.115Z,18.00
2019-01-28T01:16:59.005Z,21.03
2019-01-28T01:19:26.151Z,20.73
2019-01-28T01:21:53.261Z,19.60
2019-01-28T01:24:22.158Z,19.47
2019-01-28T01:26:49.521Z,20.80
2019-01-28T01:29:16.963Z,23.13
2019-01-28T01:31:44.251Z,23.77
2019-01-28T01:34:11.763Z,19.57
2019-01-28T01:36:39.240Z,24.37
2019-01-28T01:39:07.286Z,30.03
2019-01-28T01:41:34.824Z,29.20
2019-01-28T01:44:02.616Z,27.13
2019-01-28T01:46:30.176Z,22.80
2019-01-28T01:48:57.222Z,24.30
2019-01-28T01:51:24.842Z,27.50
2019-01-28T01:53:52.140Z,22.03
2019-01-28T01:56:19.542Z,26.03
2019-01-28T01:58:47.217Z,27.03
2019-01-28T02:01:14.468Z,24.37
2019-01-28T02:03:41.691Z,22.77
2019-01-28T02:06:08.897Z,23.60
2019-01-28T02:08:36.097Z,24.27
2019-01-28T02:11:03.465Z,21.87
2019-01-28T02:13:30.156Z,21.77
2019-01-28T02:15:57.524Z,23.87
2019-01-28T02:18:24.736Z,18.23
2019-01-28T02:20:51.998Z,21.37
2019-01-28T02:23:19.166Z,21.23
2019-01-28T02:25:46.507Z,21.07
2019-01-28T02:28:13.529Z,24.80
2019-01-28T02:30:40.731Z,22.67
2019-01-28T02:33:07.886Z,19.67
2019-01-28T02:35:35.231Z,24.10
2019-01-28T02:38:04.175Z,21.60
2019-01-28T02:40:31.533Z,22.53
2019-01-28T02:42:58.933Z,25.50
2019-01-28T02:45:28.259Z,20.07
2019-01-28T02:47:56.066Z,26.53
2019-01-28T02:50:26.591Z,21.23
2019-01-28T02:52:53.740Z,17.47
2019-01-28T02:55:39.875Z,20.00
2019-01-28T02:58:13.400Z,17.80
2019-01-28T03:00:40.524Z,19.33
2019-01-28T03:03:07.397Z,17.50
2019-01-28T03:05:34.283Z,20.47
2019-01-28T03:08:01.535Z,20.17
2019-01-28T03:10:28.577Z,20.10
2019-01-28T03:12:55.509Z,16.67
2019-01-28T03:15:22.500Z,21.50
2019-01-28T03:17:49.425Z,21.40
2019-01-28T03:20:17.859Z,19.27
2019-01-28T03:22:45.090Z,22.63
2019-01-28T03:25:14.465Z,19.90
2019-01-28T03:27:41.665Z,22.57
2019-01-28T03:30:11.775Z,17.80
2019-01-28T03:32:38.687Z,17.30
2019-01-28T03:35:08.010Z,22.30
2019-01-28T03:37:35.728Z,17.23
2019-01-28T03:40:06.459Z,22.00
2019-01-28T03:42:33.356Z,20.43
2019-01-28T03:45:00.562Z,27.10
2019-01-28T03:47:28.319Z,17.00
2019-01-28T03:49:56.040Z,16.63
2019-01-28T03:52:23.747Z,23.83
2019-01-28T03:54:50.965Z,12.00
2019-01-28T03:57:18.314Z,19.70
2019-01-28T03:59:45.451Z,17.33
2019-01-28T04:02:12.873Z,19.30
2019-01-28T04:04:40.228Z,23.33
2019-01-28T04:07:07.993Z,16.17
2019-01-28T04:09:35.565Z,20.53
2019-01-28T04:12:02.756Z,18.97
2019-01-28T04:14:29.893Z,17.93
2019-01-28T04:16:56.890Z,16.03
2019-01-28T04:19:24.084Z,20.43
2019-01-28T04:21:51.020Z,26.57
2019-01-28T04:24:17.940Z,18.07
2019-01-28T04:26:44.815Z,23.97
2019-01-28T04:29:12.120Z,24.73
2019-01-28T04:31:39.391Z,24.50
2019-01-28T04:34:06.610Z,21.73
2019-01-28T04:36:33.588Z,20.50
2019-01-28T04:39:00.659Z,19.17
2019-01-28T04:41:28.088Z,30.90
2019-01-28T04:43:55.247Z,33.23
2019-01-28T04:46:21.898Z,23.33
2019-01-28T04:48:48.612Z,27.23
2019-01-28T04:51:15.565Z,21.87
2019-01-28T04:53:42.150Z,23.13
2019-01-28T04:56:09.172Z,24.03
2019-01-28T04:58:36.159Z,23.67
2019-01-28T05:01:04.161Z,24.87
2019-01-28T05:03:31.726Z,16.43
2019-01-28T05:05:58.834Z,16.77
2019-01-28T05:08:25.634Z,24.27
2019-01-28T05:10:52.562Z,21.57
2019-01-28T05:13:19.665Z,21.10
2019-01-28T05:15:47.230Z,26.60
2019-01-28T05:18:14.388Z,18.97
2019-01-28T05:20:42.921Z,23.13
2019-01-28T05:23:10.380Z,19.00
2019-01-28T05:25:37.631Z,27.20
2019-01-28T05:28:04.837Z,18.67
2019-01-28T05:30:32.096Z,23.63
2019-01-28T05:32:59.376Z,24.13
2019-01-28T05:35:26.550Z,30.70
2019-01-28T05:37:53.501Z,20.80
2019-01-28T05:40:22.467Z,16.53
2019-01-28T05:42:49.684Z,25.00
2019-01-28T05:45:18.524Z,23.90
2019-01-28T05:47:45.570Z,23.37
2019-01-28T05:50:14.679Z,18.77
2019-01-28T05:52:42.416Z,17.30
2019-01-28T05:55:17.310Z,20.40
2019-01-28T05:57:45.029Z,19.00
2019-01-28T06:00:18.925Z,24.57
2019-01-28T06:02:45.795Z,21.20
2019-01-28T06:05:14.086Z,17.60
2019-01-28T06:07:41.317Z,23.57
2019-01-28T06:10:11.718Z,16.03
2019-01-28T06:12:38.570Z,22.77
2019-01-28T06:15:11.594Z,22.50
2019-01-28T06:17:39.262Z,15.60
2019-01-28T06:20:13.336Z,25.27
2019-01-28T06:22:40.755Z,14.97
2019-01-28T06:25:08.587Z,18.47
2019-01-28T06:27:36.222Z,17.70
2019-01-28T06:30:06.863Z,19.73
2019-01-28T06:32:34.557Z,17.03
2019-01-28T06:35:02.418Z,22.10
2019-01-28T06:37:29.869Z,18.80
2019-01-28T06:39:57.168Z,18.70
2019-01-28T06:42:24.113Z,20.23
2019-01-28T06:44:51.111Z,20.90
2019-01-28T06:47:18.023Z,20.53
2019-01-28T06:49:44.908Z,19.53
2019-01-28T06:52:12.127Z,18.57
2019-01-28T06:54:39.147Z,20.23
2019-01-28T06:57:06.248Z,19.40
2019-01-28T06:59:33.000Z,23.73
2019-01-28T07:01:59.507Z,17.73
2019-01-28T07:04:26.881Z,15.50
2019-01-28T07:06:55.489Z,16.60
2019-01-28T07:09:22.421Z,21.73
2019-01-28T07:11:49.381Z,18.77
2019-01-28T07:14:17.420Z,23.10
2019-01-28T07:16:44.323Z,19.47
2019-01-28T07:19:11.097Z,23.87
2019-01-28T07:21:37.800Z,23.63
2019-01-28T07:24:04.871Z,24.30
2019-01-28T07:26:31.450Z,26.23
2019-01-28T07:28:58.088Z,19.23
2019-01-28T07:31:25.300Z,17.50
2019-01-28T07:33:52.148Z,24.43
2019-01-28T07:36:19.608Z,20.63
2019-01-28T07:38:47.453Z,22.33
2019-01-28T07:41:15.060Z,24.30
2019-01-28T07:43:42.058Z,21.47
2019-01-28T07:46:09.919Z,23.50
2019-01-28T07:48:37.005Z,23.67
2019-01-28T07:51:03.989Z,21.30
2019-01-28T07:53:31.200Z,21.13
2019-01-28T07:55:58.684Z,20.43
2019-01-28T07:58:26.598Z,22.17
2019-01-28T08:00:53.788Z,23.13
2019-01-28T08:03:20.759Z,25.60
2019-01-28T08:05:47.703Z,28.57
2019-01-28T08:08:15.146Z,30.83
2019-01-28T08:10:42.502Z,23.73
2019-01-28T08:13:11.585Z,20.23
2019-01-28T08:15:38.531Z,17.40
2019-01-28T08:18:10.545Z,27.23
2019-01-28T08:20:34.919Z,29.80
2019-01-28T08:23:02.166Z,23.03
2019-01-28T08:25:29.922Z,19.07
2019-01-28T08:31:32.311Z,21.47
2019-01-28T08:33:59.503Z,17.30
2019-01-28T08:36:26.122Z,21.73
2019-01-28T08:38:52.632Z,18.50
2019-01-28T08:41:20.101Z,21.10
2019-01-28T08:43:47.522Z,19.97
2019-01-28T08:46:14.909Z,16.50
2019-01-28T08:48:41.938Z,16.73
2019-01-28T08:51:08.932Z,16.50
2019-01-28T08:53:35.507Z,16.40
2019-01-28T08:56:02.350Z,19.40
2019-01-28T08:58:29.327Z,16.47
2019-01-28T09:00:56.748Z,19.17
2019-01-28T09:03:23.545Z,21.47
2019-01-28T09:05:50.453Z,20.07
2019-01-28T09:08:17.333Z,17.10
2019-01-28T09:10:44.316Z,19.13
2019-01-28T09:13:11.100Z,15.60
2019-01-28T09:15:37.919Z,17.73
2019-01-28T09:18:05.682Z,19.03
2019-01-28T09:20:32.637Z,15.43
2019-01-28T09:22:59.195Z,19.00
2019-01-28T09:25:26.433Z,15.27
2019-01-28T09:27:53.161Z,16.93
2019-01-28T09:30:25.242Z,17.50
2019-01-28T09:32:52.011Z,17.80
2019-01-28T09:35:18.726Z,15.70
2019-01-28T09:37:45.573Z,17.57
2019-01-28T09:40:20.820Z,17.17
2019-01-28T09:42:48.093Z,18.57
2019-01-28T09:45:17.995Z,20.60
2019-01-28T09:47:44.566Z,16.70
2019-01-28T09:50:12.606Z,17.03
2019-01-28T09:52:39.774Z,14.43
2019-01-28T09:55:09.779Z,16.10
2019-01-28T09:57:36.692Z,17.70
2019-01-28T10:00:08.074Z,18.47
2019-01-28T10:02:34.992Z,13.37
2019-01-28T10:05:02.142Z,18.57
2019-01-28T10:07:28.902Z,18.67
2019-01-28T10:09:55.935Z,16.07
2019-01-28T10:12:22.682Z,20.40
2019-01-28T10:14:49.387Z,18.40
2019-01-28T10:17:16.041Z,18.70
2019-01-28T10:19:42.919Z,14.60
2019-01-28T10:22:09.802Z,18.63
2019-01-28T10:24:36.558Z,18.63
2019-01-28T10:27:03.303Z,20.63
2019-01-28T10:29:29.881Z,14.20
2019-01-28T10:31:56.515Z,20.10
2019-01-28T10:34:23.157Z,15.87
2019-01-28T10:36:50.386Z,14.80
2019-01-28T10:39:17.346Z,14.70
2019-01-28T10:41:45.913Z,15.87
2019-01-28T10:44:12.493Z,15.20
2019-01-28T10:46:39.106Z,19.77
2019-01-28T10:49:05.820Z,14.03
2019-01-28T10:51:32.406Z,18.53
2019-01-28T10:53:58.840Z,13.83
2019-01-28T10:56:25.400Z,18.40
2019-01-28T10:58:51.775Z,12.30
2019-01-28T11:01:18.332Z,13.30
2019-01-28T11:07:08.421Z,15.70
2019-01-28T11:09:35.150Z,13.37
2019-01-28T11:12:01.752Z,13.90
2019-01-28T11:14:28.885Z,16.90
2019-01-28T11:16:56.023Z,14.80
2019-01-28T11:19:23.097Z,13.40
2019-01-28T11:21:50.053Z,16.20
2019-01-28T11:24:16.881Z,16.43
2019-01-28T11:26:45.232Z,25.00
2019-01-28T11:29:12.558Z,21.17
2019-01-28T11:31:39.639Z,14.90
2019-01-28T11:34:06.412Z,23.33
2019-01-28T11:36:33.006Z,17.87
2019-01-28T11:38:59.519Z,15.63
2019-01-28T11:41:39.092Z,16.00
2019-01-28T11:44:05.680Z,11.50
2019-01-28T11:46:32.523Z,15.87
2019-01-28T11:49:05.732Z,13.67
2019-01-28T11:51:28.473Z,15.03
2019-01-28T11:53:55.142Z,14.50
2019-01-28T11:56:21.486Z,13.20
2019-01-28T11:58:48.107Z,12.70
2019-01-28T12:01:17.061Z,10.20
2019-01-28T12:03:43.829Z,11.33
2019-01-28T12:06:10.837Z,14.70
2019-01-28T12:08:37.554Z,12.27
2019-01-28T12:11:04.288Z,9.80
2019-01-28T12:13:30.602Z,10.13
2019-01-28T12:15:57.200Z,11.77
2019-01-28T12:18:23.790Z,13.77
2019-01-28T12:20:53.610Z,10.10
2019-01-28T12:23:19.254Z,11.67
2019-01-28T12:25:45.906Z,8.60
2019-01-28T12:28:12.891Z,12.63
2019-01-28T12:30:40.001Z,8.90
2019-01-28T12:33:06.436Z,10.90
2019-01-28T12:35:33.260Z,10.43
2019-01-28T12:37:59.939Z,12.50
2019-01-28T12:40:26.838Z,16.07
2019-01-28T12:42:53.387Z,12.37
2019-01-28T12:45:27.218Z,13.40
2019-01-28T12:47:53.811Z,12.97
2019-01-28T12:50:22.352Z,12.53
2019-01-28T12:52:49.315Z,14.97
2019-01-28T12:55:17.713Z,13.40
2019-01-28T12:57:44.756Z,13.33
2019-01-28T13:00:25.870Z,14.27
2019-01-28T13:02:53.837Z,13.03
2019-01-28T13:05:24.226Z,13.00
2019-01-28T13:07:50.537Z,10.67
2019-01-28T13:10:21.875Z,13.03
2019-01-28T13:12:48.366Z,11.83
2019-01-28T13:15:20.929Z,10.30
2019-01-28T13:17:47.600Z,16.70
2019-01-28T13:20:14.281Z,9.77
2019-01-28T13:22:44.929Z,11.10
2019-01-28T13:25:13.075Z,15.87
2019-01-28T13:27:39.982Z,14.43
2019-01-28T13:30:10.313Z,22.93
2019-01-28T13:32:36.847Z,9.70
2019-01-28T13:35:04.443Z,10.33
2019-01-28T13:37:32.515Z,12.43
2019-01-28T13:39:59.129Z,12.77
2019-01-28T13:42:25.750Z,11.80
2019-01-28T13:44:52.447Z,8.20
2019-01-28T13:47:18.957Z,9.50
2019-01-28T13:49:45.498Z,15.73
2019-01-28T13:52:12.112Z,8.60
2019-01-28T13:54:38.466Z,13.47
2019-01-28T13:57:04.715Z,9.83
2019-01-28T13:59:31.113Z,9.50
2019-01-28T14:01:57.871Z,7.83
2019-01-28T14:04:24.282Z,10.10
2019-01-28T14:06:50.922Z,13.13
2019-01-28T14:09:17.227Z,11.00
2019-01-28T14:11:43.494Z,20.50
2019-01-28T14:14:10.318Z,10.23
2019-01-28T14:16:36.866Z,9.40
2019-01-28T14:19:03.496Z,10.60
2019-01-28T14:21:29.988Z,8.27
2019-01-28T14:23:56.971Z,14.93
2019-01-28T14:26:23.527Z,12.77
2019-01-28T14:28:49.980Z,22.67
2019-01-28T14:31:16.560Z,10.90
2019-01-28T14:33:43.196Z,11.33
2019-01-28T14:36:10.057Z,14.13
2019-01-28T14:38:36.752Z,15.53
2019-01-28T14:41:03.168Z,13.10
2019-01-28T14:43:29.574Z,12.00
2019-01-28T14:45:56.202Z,15.70
2019-01-28T14:48:22.581Z,9.63
2019-01-28T14:50:48.983Z,11.07
2019-01-28T14:53:15.309Z,10.90
2019-01-28T14:55:41.698Z,8.37
2019-01-28T14:58:08.405Z,13.03
2019-01-28T15:00:40.635Z,15.00
2019-01-28T15:03:07.125Z,12.93
2019-01-28T15:05:34.138Z,9.60
2019-01-28T15:08:00.517Z,13.23
2019-01-28T15:10:27.054Z,10.83
2019-01-28T15:12:53.535Z,11.03
2019-01-28T15:15:31.661Z,10.30
2019-01-28T15:17:58.716Z,12.93
2019-01-28T15:20:25.355Z,10.20
2019-01-28T15:22:51.861Z,10.70
2019-01-28T15:25:18.204Z,15.60
2019-01-28T15:27:44.470Z,9.97
2019-01-28T15:30:22.936Z,13.60
2019-01-28T15:32:49.701Z,13.00
2019-01-28T15:35:21.978Z,12.20
2019-01-28T15:37:48.797Z,14.63
2019-01-28T15:40:21.703Z,17.27
2019-01-28T15:42:48.443Z,39.50
2019-01-28T15:45:20.942Z,51.60
2019-01-28T15:47:47.452Z,19.13
2019-01-28T15:50:19.427Z,45.50
2019-01-28T15:52:46.115Z,23.60
2019-01-28T15:55:16.045Z,25.60
2019-01-28T15:57:42.508Z,25.63
2019-01-28T16:00:12.791Z,12.37
2019-01-28T16:02:39.168Z,14.87
2019-01-28T16:05:08.517Z,15.50
2019-01-28T16:07:35.154Z,13.07
2019-01-28T16:10:01.625Z,13.17
2019-01-28T16:12:27.938Z,13.63
2019-01-28T16:14:55.969Z,12.50
2019-01-28T16:17:22.512Z,20.60
2019-01-28T16:19:49.249Z,11.97
2019-01-28T16:22:15.822Z,13.90
2019-01-28T16:24:42.652Z,11.00
2019-01-28T16:27:09.142Z,14.97
2019-01-28T16:29:35.577Z,11.73
2019-01-28T16:32:02.401Z,12.53
2019-01-28T16:34:29.011Z,18.17
2019-01-28T16:36:55.867Z,12.80
2019-01-28T16:39:22.338Z,12.10
2019-01-28T16:41:48.829Z,12.50
2019-01-28T16:44:15.299Z,10.30
2019-01-28T16:46:41.752Z,11.37
2019-01-28T16:49:08.236Z,11.90
2019-01-28T16:51:34.696Z,14.40
2019-01-28T16:54:01.041Z,17.13
2019-01-28T16:56:28.691Z,23.00
2019-01-28T16:58:55.765Z,31.83
2019-01-28T17:01:22.246Z,92.93
2019-01-28T17:03:49.308Z,47.07
2019-01-28T17:06:15.870Z,16.80
2019-01-28T17:08:42.418Z,32.17
2019-01-28T17:11:09.003Z,21.10
2019-01-28T17:13:35.695Z,22.23
2019-01-28T17:16:03.465Z,37.27
2019-01-28T17:18:30.132Z,58.00
2019-01-28T17:27:40.914Z,12.87
2019-01-28T17:33:45.818Z,8.60
2019-01-28T17:36:13.868Z,13.30
2019-01-28T17:42:04.198Z,13.83
2019-01-28T17:44:32.113Z,11.40
2019-01-28T17:46:58.785Z,12.93
2019-01-28T17:49:26.220Z,12.03
2019-01-28T17:51:52.658Z,15.37
2019-01-28T17:54:19.680Z,15.27
2019-01-28T17:56:46.950Z,13.87
2019-01-28T17:59:13.446Z,13.37
2019-01-28T18:01:40.152Z,15.07
2019-01-28T18:07:17.778Z,12.90
2019-01-28T18:09:44.494Z,21.97
2019-01-28T18:15:47.123Z,54.20
2019-01-28T18:18:13.676Z,60.63
2019-01-28T18:20:40.516Z,20.23
2019-01-28T18:23:09.801Z,27.87
2019-01-28T18:25:36.924Z,38.57
2019-01-28T18:28:04.805Z,64.17
2019-01-28T18:30:35.200Z,58.17
2019-01-28T18:33:01.708Z,19.67
2019-01-28T18:35:28.290Z,16.90
2019-01-28T18:37:54.997Z,26.10
2019-01-28T18:40:21.632Z,19.03
2019-01-28T18:42:48.499Z,14.83
2019-01-28T18:45:18.373Z,13.97
2019-01-28T18:47:45.030Z,11.80
2019-01-28T18:50:17.089Z,14.10
2019-01-28T18:52:43.790Z,13.70
2019-01-28T18:55:13.401Z,12.63
2019-01-28T18:57:39.747Z,17.63
2019-01-28T19:00:13.265Z,14.70
2019-01-28T19:02:39.699Z,12.13
2019-01-28T19:05:09.556Z,13.37
2019-01-28T19:07:37.811Z,16.33
2019-01-28T19:10:07.630Z,15.53
2019-01-28T19:12:35.890Z,15.70
2019-01-28T19:15:06.173Z,16.40
2019-01-28T19:17:34.458Z,14.73
2019-01-28T19:20:11.846Z,13.63
2019-01-28T19:26:12.711Z,15.30
2019-01-28T19:28:39.006Z,17.27
2019-01-28T19:31:05.454Z,14.50
2019-01-28T19:33:31.905Z,14.50
2019-01-28T19:38:57.981Z,18.43
2019-01-28T19:44:35.838Z,17.43
2019-01-28T19:50:26.936Z,15.40
2019-01-28T19:52:53.635Z,17.90
2019-01-28T19:55:22.018Z,16.60
2019-01-28T19:57:48.489Z,15.53
2019-01-28T20:00:23.374Z,18.00
2019-01-28T20:06:01.657Z,18.83
2019-01-28T20:08:27.939Z,16.83
2019-01-28T20:10:54.965Z,18.93
2019-01-28T20:13:21.544Z,18.63
2019-01-28T20:15:47.886Z,19.93
2019-01-28T20:18:15.101Z,23.90
2019-01-28T20:20:41.576Z,19.63
2019-01-28T20:23:07.885Z,20.17
2019-01-28T20:25:35.619Z,21.03
2019-01-28T20:28:02.296Z,24.10
2019-01-28T20:30:29.072Z,23.20
2019-01-28T20:32:55.445Z,18.77
2019-01-28T20:35:21.993Z,25.90
2019-01-28T20:41:12.168Z,21.67
2019-01-28T20:47:03.559Z,22.47
2019-01-28T20:52:53.203Z,23.40
2019-01-28T20:55:19.711Z,21.43
2019-01-28T20:57:46.207Z,30.37
2019-01-28T21:00:16.041Z,27.63
2019-01-28T21:02:42.274Z,26.07
2019-01-28T21:08:19.693Z,19.30
2019-01-28T21:14:09.539Z,15.70
2019-01-28T21:16:35.804Z,15.13
2019-01-28T21:19:02.336Z,11.30
2019-01-28T21:24:39.344Z,13.33
2019-01-28T21:27:05.770Z,12.57
2019-01-28T21:29:32.095Z,13.80
2019-01-28T21:31:58.558Z,12.23
2019-01-28T21:38:02.910Z,14.73
2019-01-28T21:40:29.382Z,12.93
2019-01-28T21:42:56.226Z,14.27
2019-01-28T21:45:22.914Z,13.50
2019-01-28T21:47:55.050Z,13.80
2019-01-28T21:50:23.562Z,14.17
2019-01-28T21:52:49.993Z,12.93
2019-01-28T21:55:16.378Z,13.27
2019-01-28T21:57:42.930Z,12.87
2019-01-28T22:03:33.457Z,9.07
2019-01-28T22:05:59.896Z,7.83
2019-01-28T22:08:26.404Z,8.27
2019-01-28T22:10:53.092Z,7.50
2019-01-28T22:13:20.140Z,9.57
2019-01-28T22:15:46.766Z,6.57
2019-01-28T22:18:13.299Z,8.93
2019-01-28T22:20:39.978Z,9.23
2019-01-28T22:23:06.512Z,7.43
2019-01-28T22:25:33.105Z,6.20
2019-01-28T22:27:59.490Z,6.63
2019-01-28T22:30:25.909Z,9.03
2019-01-28T22:32:52.303Z,7.53
2019-01-28T22:35:18.770Z,7.10
2019-01-28T22:37:45.387Z,7.43
2019-01-28T22:40:13.844Z,8.40
2019-01-28T22:42:40.600Z,8.57
2019-01-28T22:45:10.738Z,7.20
2019-01-28T22:47:37.476Z,7.47
2019-01-28T22:50:07.604Z,8.20
2019-01-28T22:55:45.222Z,8.50
2019-01-28T22:58:11.854Z,7.90
2019-01-28T23:00:48.968Z,7.80
2019-01-28T23:03:17.240Z,8.93
2019-01-28T23:05:43.761Z,9.03
2019-01-28T23:08:10.193Z,8.47
2019-01-28T23:10:36.908Z,9.40
2019-01-28T23:13:04.486Z,8.93
2019-01-28T23:15:31.268Z,11.77
2019-01-28T23:18:00.829Z,9.63
2019-01-28T23:20:27.618Z,9.20
2019-01-28T23:22:54.280Z,12.80
2019-01-28T23:25:20.651Z,8.27
2019-01-28T23:27:47.070Z,10.40
2019-01-28T23:30:13.685Z,9.80
2019-01-28T23:32:40.265Z,10.10
2019-01-28T23:35:07.885Z,10.47
2019-01-28T23:37:34.143Z,11.23
2019-01-28T23:40:00.440Z,10.90
2019-01-28T23:42:26.951Z,10.67
2019-01-28T23:44:53.215Z,12.97
2019-01-28T23:47:19.567Z,9.97
2019-01-28T23:49:45.872Z,10.63
2019-01-28T23:52:12.401Z,10.30
2019-01-28T23:54:38.896Z,10.27
2019-01-28T23:57:05.312Z,11.07
2019-01-28T23:59:31.616Z,10.13
